createdAt,value
2022-08-31T00:00:02.926Z,9.70
2022-08-31T00:05:10.397Z,9.55
2022-08-31T00:10:15.278Z,9.75
2022-08-31T00:15:23.806Z,7.88
2022-08-31T00:20:33.859Z,9.40
2022-08-31T00:25:40.423Z,9.98
2022-08-31T00:30:46.587Z,10.20
2022-08-31T00:35:52.135Z,8.18
2022-08-31T00:40:59.140Z,9.63
2022-08-31T00:46:05.126Z,10.23
2022-08-31T00:51:09.399Z,9.60
2022-08-31T00:56:16.233Z,9.55
2022-08-31T01:01:22.199Z,9.93
2022-08-31T01:06:27.380Z,9.23
2022-08-31T01:11:32.242Z,9.52
2022-08-31T01:16:42.192Z,9.43
2022-08-31T01:21:54.233Z,9.07
2022-08-31T01:27:03.755Z,9.20
2022-08-31T01:32:09.149Z,8.80
2022-08-31T01:37:13.772Z,9.73
2022-08-31T01:42:21.245Z,9.65
2022-08-31T01:47:25.427Z,8.98
2022-08-31T01:52:30.061Z,8.65
2022-08-31T01:57:36.341Z,7.38
2022-08-31T02:03:08.006Z,7.93
2022-08-31T02:08:13.627Z,8.52
2022-08-31T02:13:19.438Z,8.63
2022-08-31T02:18:23.645Z,9.85
2022-08-31T02:23:27.738Z,10.57
2022-08-31T02:28:33.793Z,10.13
2022-08-31T02:33:38.402Z,9.68
2022-08-31T02:38:43.571Z,10.68
2022-08-31T02:43:49.232Z,10.63
2022-08-31T02:48:54.198Z,10.98
2022-08-31T02:53:58.626Z,10.85
2022-08-31T02:59:04.251Z,10.82
2022-08-31T03:04:08.531Z,10.48
2022-08-31T03:09:12.562Z,9.70
2022-08-31T03:14:18.526Z,9.93
2022-08-31T03:19:22.865Z,9.45
2022-08-31T03:24:28.373Z,9.27
2022-08-31T03:29:34.616Z,9.57
2022-08-31T03:34:56.097Z,9.68
2022-08-31T03:40:00.785Z,9.52
2022-08-31T03:45:08.033Z,9.13
2022-08-31T03:50:16.450Z,8.18
2022-08-31T03:55:32.038Z,9.02
2022-08-31T04:00:40.056Z,9.65
2022-08-31T04:05:55.401Z,7.93
2022-08-31T04:11:29.958Z,7.45
2022-08-31T04:17:05.884Z,8.38
2022-08-31T04:22:18.996Z,8.18
2022-08-31T04:27:42.934Z,7.60
2022-08-31T04:32:48.409Z,8.40
2022-08-31T04:37:52.687Z,8.15
2022-08-31T04:42:56.960Z,8.57
2022-08-31T04:48:03.010Z,7.68
2022-08-31T04:53:07.164Z,9.43
2022-08-31T04:58:13.221Z,9.23
2022-08-31T05:03:19.707Z,9.55
2022-08-31T05:08:24.854Z,8.68
2022-08-31T05:13:29.214Z,7.43
2022-08-31T05:18:34.635Z,8.65
2022-08-31T05:23:39.196Z,8.95
2022-08-31T05:28:43.442Z,8.73
2022-08-31T05:33:49.588Z,7.70
2022-08-31T05:39:00.300Z,8.27
2022-08-31T05:44:06.768Z,10.07
2022-08-31T05:49:14.094Z,12.80
2022-08-31T05:54:20.930Z,10.90
2022-08-31T05:59:25.592Z,10.65
2022-08-31T06:04:31.465Z,10.52
2022-08-31T06:09:39.074Z,11.98
2022-08-31T06:14:51.311Z,10.05
2022-08-31T06:20:00.991Z,11.90
2022-08-31T06:25:07.258Z,9.82
2022-08-31T06:30:12.304Z,8.52
2022-08-31T06:35:18.517Z,8.02
2022-08-31T06:40:52.060Z,8.40
2022-08-31T06:46:25.686Z,8.15
2022-08-31T06:51:44.478Z,8.45
2022-08-31T06:56:49.233Z,8.23
2022-08-31T07:02:31.857Z,7.40
2022-08-31T07:07:37.551Z,6.70
2022-08-31T07:12:41.702Z,7.28
2022-08-31T07:17:48.636Z,7.05
2022-08-31T07:22:54.390Z,7.90
2022-08-31T07:28:18.444Z,7.63
2022-08-31T07:33:23.170Z,8.10
2022-08-31T07:38:50.836Z,7.30
2022-08-31T07:43:59.798Z,8.05
2022-08-31T07:49:09.044Z,8.60
2022-08-31T07:54:34.386Z,8.75
2022-08-31T08:00:12.304Z,8.43
2022-08-31T08:05:27.088Z,7.35
2022-08-31T08:10:54.503Z,8.23
2022-08-31T08:16:19.505Z,6.78
2022-08-31T08:21:45.479Z,7.38
2022-08-31T08:26:54.418Z,7.53
2022-08-31T08:32:25.996Z,7.10
2022-08-31T08:37:56.756Z,6.22
2022-08-31T08:43:00.105Z,6.68
2022-08-31T08:48:12.237Z,6.13
2022-08-31T08:53:17.817Z,6.70
2022-08-31T08:58:35.588Z,7.63
2022-08-31T09:03:51.289Z,7.30
2022-08-31T09:09:28.148Z,7.85
2022-08-31T09:14:49.881Z,7.60
2022-08-31T09:20:02.074Z,7.55
2022-08-31T09:25:09.134Z,7.00
2022-08-31T09:30:52.430Z,6.78
2022-08-31T09:36:15.425Z,7.10
2022-08-31T09:41:32.311Z,5.80
2022-08-31T09:46:37.936Z,7.32
2022-08-31T09:51:42.127Z,6.70
2022-08-31T09:56:55.717Z,5.50
2022-08-31T10:02:05.974Z,5.50
2022-08-31T10:07:25.001Z,4.85
2022-08-31T10:12:41.987Z,5.10
2022-08-31T10:17:55.557Z,5.53
2022-08-31T10:23:09.238Z,5.13
2022-08-31T10:28:19.005Z,5.28
2022-08-31T10:33:49.249Z,4.45
2022-08-31T10:38:57.092Z,4.43
2022-08-31T10:44:09.165Z,4.70
2022-08-31T10:49:15.145Z,4.53
2022-08-31T10:54:33.936Z,4.82
2022-08-31T10:59:45.944Z,4.07
2022-08-31T11:05:01.925Z,3.95
2022-08-31T11:10:20.165Z,4.30
2022-08-31T11:15:44.086Z,5.20
2022-08-31T11:21:09.546Z,4.38
2022-08-31T11:26:42.275Z,4.00
2022-08-31T11:31:47.304Z,3.95
2022-08-31T11:36:55.228Z,4.63
2022-08-31T11:43:01.170Z,4.25
2022-08-31T11:48:06.947Z,4.95
2022-08-31T11:53:25.380Z,3.83
2022-08-31T11:58:33.873Z,3.88
2022-08-31T12:08:54.684Z,4.38
2022-08-31T12:14:05.178Z,4.00
2022-08-31T12:20:01.648Z,4.25
2022-08-31T12:25:19.368Z,4.25
2022-08-31T12:30:26.015Z,3.90
2022-08-31T12:35:33.041Z,3.80
2022-08-31T12:40:46.332Z,4.55
2022-08-31T12:46:19.783Z,4.00
2022-08-31T12:51:37.422Z,4.03
2022-08-31T12:56:52.997Z,4.20
2022-08-31T13:02:00.750Z,5.53
2022-08-31T13:07:15.715Z,6.23
2022-08-31T13:12:25.305Z,6.63
2022-08-31T13:17:35.687Z,6.03
2022-08-31T13:22:41.860Z,6.20
2022-08-31T13:27:53.711Z,6.00
2022-08-31T13:32:57.794Z,6.55
2022-08-31T13:38:05.561Z,6.60
2022-08-31T13:43:20.234Z,7.13
2022-08-31T13:48:30.840Z,6.32
2022-08-31T13:53:40.659Z,7.32
2022-08-31T13:58:46.271Z,6.80
2022-08-31T14:03:57.259Z,6.95
2022-08-31T14:09:05.799Z,7.28
2022-08-31T14:14:12.955Z,6.80
2022-08-31T14:19:32.109Z,6.70
2022-08-31T14:24:36.155Z,6.03
2022-08-31T14:29:42.186Z,6.63
2022-08-31T14:34:49.315Z,7.40
2022-08-31T14:39:55.296Z,7.15
2022-08-31T14:45:04.003Z,6.78
2022-08-31T14:50:08.802Z,7.03
2022-08-31T14:55:14.791Z,7.50
2022-08-31T15:00:23.322Z,6.43
2022-08-31T15:05:27.359Z,7.40
2022-08-31T15:10:31.599Z,6.15
2022-08-31T15:15:38.045Z,7.22
2022-08-31T15:20:42.922Z,5.82
2022-08-31T15:25:47.159Z,6.38
2022-08-31T15:30:52.612Z,7.55
2022-08-31T15:36:03.804Z,7.50
2022-08-31T15:41:09.361Z,7.43
2022-08-31T15:46:15.826Z,7.85
2022-08-31T15:51:23.538Z,7.03
2022-08-31T15:56:29.602Z,6.45
2022-08-31T16:01:35.384Z,7.35
2022-08-31T16:06:39.393Z,7.50
2022-08-31T16:11:43.451Z,7.35
2022-08-31T16:16:51.315Z,7.50
2022-08-31T16:21:56.316Z,8.03
2022-08-31T16:27:03.836Z,8.77
2022-08-31T16:32:10.599Z,9.25
2022-08-31T16:37:14.872Z,8.05
2022-08-31T16:42:19.385Z,9.27
2022-08-31T16:47:25.825Z,11.15
2022-08-31T16:52:31.972Z,9.82
2022-08-31T16:57:38.224Z,11.05
2022-08-31T17:02:44.264Z,9.32
2022-08-31T17:07:48.308Z,9.27
2022-08-31T17:12:54.096Z,10.57
2022-08-31T17:17:59.507Z,9.32
2022-08-31T17:23:04.174Z,9.43
2022-08-31T17:28:09.151Z,8.90
2022-08-31T17:33:14.573Z,9.10
2022-08-31T17:38:18.814Z,9.63
2022-08-31T17:43:25.233Z,10.07
2022-08-31T17:48:36.122Z,9.73
2022-08-31T17:53:40.236Z,9.57
2022-08-31T17:58:44.656Z,9.00
2022-08-31T18:03:50.189Z,9.45
2022-08-31T18:08:54.931Z,8.65
2022-08-31T18:13:58.997Z,9.43
2022-08-31T18:19:04.485Z,10.13
2022-08-31T18:24:09.297Z,9.18
2022-08-31T18:29:24.302Z,8.88
2022-08-31T18:34:30.165Z,9.05
2022-08-31T18:39:59.583Z,8.10
2022-08-31T18:45:19.406Z,7.43
2022-08-31T18:50:32.338Z,7.73
2022-08-31T18:55:41.038Z,7.97
2022-08-31T19:00:46.754Z,8.25
2022-08-31T19:05:55.201Z,7.07
2022-08-31T19:10:59.286Z,8.87
2022-08-31T19:16:14.774Z,8.10
2022-08-31T19:21:23.847Z,7.68
2022-08-31T19:26:31.124Z,8.03
2022-08-31T19:31:36.230Z,7.43
2022-08-31T19:36:43.307Z,7.80
2022-08-31T19:41:50.495Z,8.05
2022-08-31T19:46:56.265Z,7.85
2022-08-31T19:52:04.563Z,8.32
2022-08-31T19:57:10.032Z,8.60
2022-08-31T20:02:14.600Z,7.75
2022-08-31T20:07:23.872Z,8.52
2022-08-31T20:12:30.733Z,9.00
2022-08-31T20:17:35.243Z,9.05
2022-08-31T20:22:41.268Z,8.70
2022-08-31T20:27:46.148Z,9.98
2022-08-31T20:32:54.840Z,8.73
2022-08-31T20:38:00.641Z,7.70
2022-08-31T20:43:10.710Z,7.97
2022-08-31T20:48:32.837Z,8.88
2022-08-31T20:53:42.972Z,7.28
2022-08-31T20:58:48.956Z,7.75
2022-08-31T21:03:55.003Z,7.68
2022-08-31T21:09:02.071Z,7.30
2022-08-31T21:14:06.697Z,8.50
2022-08-31T21:19:13.690Z,7.95
2022-08-31T21:24:20.847Z,8.02
2022-08-31T21:29:24.941Z,7.40
2022-08-31T21:34:29.157Z,7.22
2022-08-31T21:39:39.276Z,7.80
2022-08-31T21:44:43.876Z,7.47
2022-08-31T21:49:54.824Z,8.13
2022-08-31T21:55:05.718Z,8.50
2022-08-31T22:00:15.958Z,7.65
2022-08-31T22:05:20.431Z,7.47
2022-08-31T22:10:25.918Z,8.20
2022-08-31T22:15:30.110Z,7.75
2022-08-31T22:20:34.684Z,6.65
2022-08-31T22:25:41.537Z,7.82
2022-08-31T22:30:46.426Z,6.65
2022-08-31T22:35:50.508Z,6.93
2022-08-31T22:40:55.982Z,6.40
2022-08-31T22:46:00.498Z,6.57
2022-08-31T22:51:05.754Z,7.10
2022-08-31T22:56:13.366Z,7.53
2022-08-31T23:01:19.202Z,7.10
2022-08-31T23:06:26.089Z,7.03
2022-08-31T23:11:31.747Z,8.25
2022-08-31T23:16:37.782Z,7.43
2022-08-31T23:21:47.032Z,6.18
2022-08-31T23:27:04.391Z,6.88
2022-08-31T23:32:11.712Z,7.07
2022-08-31T23:37:17.618Z,7.05
2022-08-31T23:42:25.132Z,6.85
2022-08-31T23:47:31.411Z,7.60
2022-08-31T23:52:41.752Z,6.60
2022-08-31T23:57:48.589Z,6.55
